Time,TemperatureF,DewpointF,PressureIn,WindDirection,WindDirectionDegrees,WindSpeedMPH,WindSpeedGustMPH,Humidity,HourlyPrecipIn,Conditions,Clouds,dailyrainin,SoftwareType,DateUTC
2013-10-03 00:01:00,58.7,53.8,30.18,NNW,346,0.0,0.0,84,0.00,,CLR,0.00,VWS V14.01,2013-10-03 04:01:00,
2013-10-03 00:02:00,58.7,53.8,30.18,NNW,346,0.0,0.0,84,0.00,,CLR,0.00,VWS V14.01,2013-10-03 04:02:00,
2013-10-03 00:06:00,58.7,53.8,30.18,NNW,346,0.0,0.0,84,0.00,,CLR,0.00,VWS V14.01,2013-10-03 04:06:00,
2013-10-03 00:13:00,58.3,53.2,30.18,NNW,346,0.0,0.0,83,0.00,,CLR,0.00,VWS V14.01,2013-10-03 04:13:00,
2013-10-03 00:18:00,57.9,52.8,30.18,NNW,346,0.0,0.0,83,0.00,,CLR,0.00,VWS V14.01,2013-10-03 04:18:00,
2013-10-03 00:23:00,58.1,53.3,30.18,NNW,346,0.0,0.0,84,0.00,,CLR,0.00,VWS V14.01,2013-10-03 04:23:00,
2013-10-03 00:29:00,58.1,53.3,30.18,NNW,346,0.0,0.0,84,0.00,,CLR,0.00,VWS V14.01,2013-10-03 04:29:00,
2013-10-03 00:34:00,57.9,53.1,30.18,NE,38,0.0,0.0,84,0.00,,CLR,0.00,VWS V14.01,2013-10-03 04:34:00,
2013-10-03 00:39:00,57.9,53.1,30.18,NE,38,0.0,0.0,84,0.00,,CLR,0.00,VWS V14.01,2013-10-03 04:39:00,
2013-10-03 00:44:00,58.1,53.3,30.18,NE,38,0.0,0.0,84,0.00,,CLR,0.00,VWS V14.01,2013-10-03 04:44:00,
2013-10-03 00:49:00,57.4,52.6,30.18,NE,38,0.0,0.0,84,0.00,,CLR,0.00,VWS V14.01,2013-10-03 04:49:00,
2013-10-03 00:54:00,57.0,52.2,30.18,NE,38,0.0,0.0,84,0.00,,CLR,0.00,VWS V14.01,2013-10-03 04:54:00,
2013-10-03 00:59:00,57.0,52.8,30.18,NE,38,0.0,0.0,86,0.00,,CLR,0.00,VWS V14.01,2013-10-03 04:59:00,
2013-10-03 01:04:00,57.0,53.2,30.18,NE,38,0.0,0.0,87,0.00,,CLR,0.00,VWS V14.01,2013-10-03 05:04:00,
2013-10-03 01:09:00,56.8,53.3,30.18,NE,38,0.0,0.0,88,0.00,,CLR,0.00,VWS V14.01,2013-10-03 05:09:00,
2013-10-03 01:14:00,56.6,53.4,30.18,NE,38,0.0,0.0,89,0.00,,CLR,0.00,VWS V14.01,2013-10-03 05:14:00,
2013-10-03 01:19:00,56.2,52.8,30.18,NE,38,0.0,0.0,88,0.00,,CLR,0.00,VWS V14.01,2013-10-03 05:19:00,
2013-10-03 01:24:00,56.2,53.0,30.18,NE,38,0.0,0.0,89,0.00,,CLR,0.00,VWS V14.01,2013-10-03 05:24:00,
2013-10-03 01:29:00,56.4,53.2,30.18,NE,38,0.0,0.0,89,0.00,,CLR,0.00,VWS V14.01,2013-10-03 05:29:00,
2013-10-03 01:34:00,56.4,53.2,30.18,NE,38,0.0,0.0,89,0.00,,CLR,0.00,VWS V14.01,2013-10-03 05:34:00,
2013-10-03 01:39:00,56.2,53.0,30.18,NE,38,0.0,0.0,89,0.00,,CLR,0.00,VWS V14.01,2013-10-03 05:39:00,
2013-10-03 01:44:00,56.2,52.8,30.18,NE,38,0.0,0.0,88,0.00,,CLR,0.00,VWS V14.01,2013-10-03 05:44:00,
2013-10-03 01:49:00,56.4,52.9,30.18,NE,38,0.0,0.0,88,0.00,,CLR,0.00,VWS V14.01,2013-10-03 05:49:00,
2013-10-03 01:54:00,56.2,52.8,30.18,NE,38,0.0,0.0,88,0.00,,CLR,0.00,VWS V14.01,2013-10-03 05:54:00,
2013-10-03 01:59:00,56.2,52.4,30.18,NE,38,0.0,0.0,87,0.00,,CLR,0.00,VWS V14.01,2013-10-03 05:59:00,
2013-10-03 02:04:00,56.2,52.4,30.18,NE,38,0.0,0.0,87,0.00,,,0.00,VWS V14.01,2013-10-03 06:04:00,
2013-10-03 02:09:00,55.5,51.7,30.18,NE,38,0.0,0.0,87,0.00,,,0.00,VWS V14.01,2013-10-03 06:09:00,
2013-10-03 02:14:00,55.5,51.7,30.18,NE,38,0.0,0.0,87,0.00,,,0.00,VWS V14.01,2013-10-03 06:14:00,
2013-10-03 02:19:00,55.1,51.3,30.18,NE,38,0.0,0.0,87,0.00,,,0.00,VWS V14.01,2013-10-03 06:19:00,
2013-10-03 02:24:00,54.2,50.1,30.18,WNW,286,0.0,0.0,86,0.00,,,0.00,VWS V14.01,2013-10-03 06:24:00,
2013-10-03 02:29:00,54.4,50.6,30.18,WNW,286,0.0,0.0,87,0.00,,,0.00,VWS V14.01,2013-10-03 06:29:00,
2013-10-03 02:34:00,54.8,51.3,30.18,WNW,286,0.0,0.0,88,0.00,,,0.00,VWS V14.01,2013-10-03 06:34:00,
2013-10-03 02:39:00,54.8,51.3,30.18,WNW,286,0.0,0.0,88,0.00,,,0.00,VWS V14.01,2013-10-03 06:39:00,
2013-10-03 02:44:00,54.8,51.3,30.18,WNW,286,0.0,0.0,88,0.00,,,0.00,VWS V14.01,2013-10-03 06:44:00,
2013-10-03 02:49:00,54.6,51.1,30.18,WNW,286,0.0,0.0,88,0.00,,,0.00,VWS V14.01,2013-10-03 06:49:00,
2013-10-03 02:54:00,54.6,51.1,30.18,WNW,286,0.0,0.0,88,0.00,,,0.00,VWS V14.01,2013-10-03 06:54:00,
2013-10-03 02:59:00,54.6,51.1,30.18,WNW,286,0.0,0.0,88,0.00,,,0.00,VWS V14.01,2013-10-03 06:59:00,
2013-10-03 03:04:00,54.6,51.4,30.18,WNW,286,0.0,0.0,89,0.00,,,0.00,VWS V14.01,2013-10-03 07:04:00,
2013-10-03 03:09:00,53.8,50.4,30.18,WNW,286,0.0,0.0,88,0.00,,,0.00,VWS V14.01,2013-10-03 07:09:00,
2013-10-03 03:14:00,53.3,49.8,30.18,WNW,286,0.0,0.0,88,0.00,,,0.00,VWS V14.01,2013-10-03 07:14:00,
2013-10-03 03:19:00,53.5,50.3,30.18,WNW,286,0.0,0.0,89,0.00,,,0.00,VWS V14.01,2013-10-03 07:19:00,
2013-10-03 03:24:00,53.5,50.6,30.18,WNW,286,0.0,0.0,90,0.00,,,0.00,VWS V14.01,2013-10-03 07:24:00,
2013-10-03 03:29:00,53.3,50.7,30.18,WNW,286,0.0,0.0,91,0.00,,,0.00,VWS V14.01,2013-10-03 07:29:00,
2013-10-03 03:34:00,52.9,50.4,30.18,WNW,286,0.0,0.0,91,0.00,,,0.00,VWS V14.01,2013-10-03 07:34:00,
2013-10-03 03:39:00,52.9,51.0,30.18,WNW,286,0.0,0.0,93,0.00,,,0.00,VWS V14.01,2013-10-03 07:39:00,
2013-10-03 03:44:00,53.1,51.4,30.18,WNW,286,0.0,0.0,94,0.00,,,0.00,VWS V14.01,2013-10-03 07:44:00,
2013-10-03 03:49:00,53.5,51.8,30.18,WNW,286,0.0,0.0,94,0.00,,,0.00,VWS V14.01,2013-10-03 07:49:00,
2013-10-03 03:54:00,53.7,52.3,30.18,WNW,286,0.0,0.0,95,0.00,,,0.00,VWS V14.01,2013-10-03 07:54:00,
2013-10-03 03:59:00,53.8,52.4,30.18,WNW,286,0.0,0.0,95,0.00,,,0.00,VWS V14.01,2013-10-03 07:59:00,
2013-10-03 04:04:00,53.8,52.4,30.18,WNW,286,0.0,0.0,95,0.00,,CLR,0.00,VWS V14.01,2013-10-03 08:04:00,
2013-10-03 04:09:00,53.7,52.3,30.18,WNW,286,0.0,0.0,95,0.00,,CLR,0.00,VWS V14.01,2013-10-03 08:09:00,
2013-10-03 04:14:00,53.8,52.4,30.18,WNW,286,0.0,0.0,95,0.00,,CLR,0.00,VWS V14.01,2013-10-03 08:14:00,
2013-10-03 04:19:00,53.7,52.3,30.18,WNW,286,0.0,0.0,95,0.00,,CLR,0.00,VWS V14.01,2013-10-03 08:19:00,
2013-10-03 04:24:00,53.7,52.3,30.18,WNW,286,0.0,0.0,95,0.00,,CLR,0.00,VWS V14.01,2013-10-03 08:24:00,
2013-10-03 04:29:00,53.7,52.5,30.18,WNW,286,0.0,0.0,96,0.00,,CLR,0.00,VWS V14.01,2013-10-03 08:29:00,
2013-10-03 04:35:00,53.3,52.2,30.18,WNW,286,0.0,0.0,96,0.00,,CLR,0.00,VWS V14.01,2013-10-03 08:35:00,
2013-10-03 04:40:00,53.3,52.5,30.18,WNW,286,0.0,0.0,97,0.00,,CLR,0.00,VWS V14.01,2013-10-03 08:40:00,
2013-10-03 04:45:00,53.3,52.7,30.18,WNW,286,0.0,0.0,98,0.00,,CLR,0.00,VWS V14.01,2013-10-03 08:45:00,
2013-10-03 04:50:00,53.3,52.7,30.18,WNW,286,0.0,0.0,98,0.00,,CLR,0.00,VWS V14.01,2013-10-03 08:50:00,
2013-10-03 04:55:00,53.5,52.9,30.18,WNW,286,0.0,0.0,98,0.00,,CLR,0.00,VWS V14.01,2013-10-03 08:55:00,
2013-10-03 05:00:00,53.5,52.9,30.18,WNW,286,0.0,0.0,98,0.00,,,0.00,VWS V14.01,2013-10-03 09:00:00,
2013-10-03 05:05:00,53.5,52.9,30.18,WNW,286,0.0,0.0,98,0.00,,,0.00,VWS V14.01,2013-10-03 09:05:00,
2013-10-03 05:10:00,53.7,53.1,30.18,WNW,286,0.0,0.0,98,0.00,,,0.00,VWS V14.01,2013-10-03 09:10:00,
2013-10-03 05:15:00,53.5,52.9,30.18,WNW,286,0.0,0.0,98,0.00,,,0.00,VWS V14.01,2013-10-03 09:15:00,
2013-10-03 05:20:00,53.5,52.9,30.18,WNW,286,0.0,0.0,98,0.00,,,0.00,VWS V14.01,2013-10-03 09:20:00,
2013-10-03 05:25:00,53.7,53.1,30.18,WNW,286,0.0,0.0,98,0.00,,,0.00,VWS V14.01,2013-10-03 09:25:00,
2013-10-03 05:30:00,53.7,53.1,30.18,WNW,286,0.0,0.0,98,0.00,,,0.00,VWS V14.01,2013-10-03 09:30:00,
2013-10-03 05:35:00,53.8,53.3,30.18,WNW,286,0.0,0.0,98,0.00,,,0.00,VWS V14.01,2013-10-03 09:35:00,
2013-10-03 05:40:00,53.8,53.0,30.18,WNW,286,0.0,0.0,97,0.00,,,0.00,VWS V14.01,2013-10-03 09:40:00,
2013-10-03 05:45:00,53.8,53.0,30.18,WNW,286,0.0,0.0,97,0.00,,,0.00,VWS V14.01,2013-10-03 09:45:00,
2013-10-03 05:50:00,53.8,53.0,30.18,WNW,286,0.0,0.0,97,0.00,,,0.00,VWS V14.01,2013-10-03 09:50:00,
2013-10-03 05:55:00,54.0,53.2,30.18,WNW,286,0.0,0.0,97,0.00,,,0.00,VWS V14.01,2013-10-03 09:55:00,
2013-10-03 06:00:00,53.8,53.0,30.18,WNW,286,0.0,0.0,97,0.00,,,0.00,VWS V14.01,2013-10-03 10:00:00,
2013-10-03 06:05:00,53.8,53.0,30.18,WNW,286,0.0,0.0,97,0.00,,,0.00,VWS V14.01,2013-10-03 10:05:00,
2013-10-03 06:10:00,53.7,53.1,30.18,WNW,286,0.0,0.0,98,0.00,,,0.00,VWS V14.01,2013-10-03 10:10:00,
2013-10-03 06:15:00,53.7,53.1,30.18,WNW,286,0.0,0.0,98,0.00,,,0.00,VWS V14.01,2013-10-03 10:15:00,
2013-10-03 06:20:00,53.5,52.9,30.18,WNW,286,0.0,0.0,98,0.00,,,0.00,VWS V14.01,2013-10-03 10:20:00,
2013-10-03 06:25:00,53.3,52.7,30.18,WNW,286,0.0,0.0,98,0.00,,,0.00,VWS V14.01,2013-10-03 10:25:00,
2013-10-03 06:30:00,53.3,52.7,30.18,WNW,286,0.0,0.0,98,0.00,,,0.00,VWS V14.01,2013-10-03 10:30:00,
2013-10-03 06:35:00,53.3,52.7,30.18,WNW,286,0.0,0.0,98,0.00,,,0.00,VWS V14.01,2013-10-03 10:35:00,
2013-10-03 06:40:00,53.3,52.7,30.18,WNW,286,0.0,0.0,98,0.00,,,0.00,VWS V14.01,2013-10-03 10:40:00,
2013-10-03 06:45:00,53.5,52.9,30.18,WNW,286,0.0,0.0,98,0.00,,,0.00,VWS V14.01,2013-10-03 10:45:00,
2013-10-03 06:50:00,53.5,52.9,30.18,WNW,286,0.0,0.0,98,0.00,,,0.00,VWS V14.01,2013-10-03 10:50:00,
2013-10-03 06:55:00,53.5,52.9,30.18,WNW,286,0.0,0.0,98,0.00,,,0.00,VWS V14.01,2013-10-03 10:55:00,
2013-10-03 07:00:00,53.5,52.9,30.18,WNW,286,0.0,0.0,98,0.00,,,0.00,VWS V14.01,2013-10-03 11:00:00,
2013-10-03 07:05:00,53.3,52.7,30.18,WNW,286,0.0,0.0,98,0.00,,,0.00,VWS V14.01,2013-10-03 11:05:00,
2013-10-03 07:10:00,53.5,52.9,30.18,WNW,286,0.0,0.0,98,0.00,,,0.00,VWS V14.01,2013-10-03 11:10:00,
2013-10-03 07:15:00,53.3,52.7,30.18,WNW,286,0.0,0.0,98,0.00,,,0.00,VWS V14.01,2013-10-03 11:15:00,
2013-10-03 07:20:00,53.3,52.7,30.18,WNW,286,0.0,0.0,98,0.00,,,0.00,VWS V14.01,2013-10-03 11:20:00,
2013-10-03 07:25:00,53.5,52.9,30.18,WNW,286,0.0,0.0,98,0.00,,,0.00,VWS V14.01,2013-10-03 11:25:00,
2013-10-03 07:30:00,53.7,53.1,30.18,WNW,286,0.0,0.0,98,0.00,,,0.00,VWS V14.01,2013-10-03 11:30:00,
2013-10-03 07:35:00,53.7,53.1,30.18,WNW,286,0.0,0.0,98,0.00,,,0.00,VWS V14.01,2013-10-03 11:35:00,
2013-10-03 07:40:00,53.8,53.3,30.18,WNW,286,0.0,0.0,98,0.00,,,0.00,VWS V14.01,2013-10-03 11:40:00,
2013-10-03 07:45:00,53.8,53.3,30.21,WNW,286,0.0,0.0,98,0.00,,,0.00,VWS V14.01,2013-10-03 11:45:00,
2013-10-03 07:51:00,53.8,53.3,30.21,WNW,286,0.0,0.0,98,0.00,,,0.00,VWS V14.01,2013-10-03 11:51:00,
2013-10-03 07:56:00,53.8,53.3,30.21,WNW,286,0.0,0.0,98,0.00,,,0.00,VWS V14.01,2013-10-03 11:56:00,
2013-10-03 08:01:00,53.8,53.3,30.21,WNW,286,0.0,0.0,98,0.00,,,0.00,VWS V14.01,2013-10-03 12:01:00,
2013-10-03 08:06:00,53.7,53.1,30.21,WNW,286,0.0,0.0,98,0.00,,,0.00,VWS V14.01,2013-10-03 12:06:00,
2013-10-03 08:11:00,53.7,53.1,30.21,WNW,286,0.0,0.0,98,0.00,,,0.00,VWS V14.01,2013-10-03 12:11:00,
2013-10-03 08:16:00,53.8,53.3,30.21,WNW,286,0.0,0.0,98,0.00,,,0.00,VWS V14.01,2013-10-03 12:16:00,
2013-10-03 08:21:00,54.0,53.5,30.21,WNW,286,0.0,0.0,98,0.00,,,0.00,VWS V14.01,2013-10-03 12:21:00,
2013-10-03 08:26:00,54.2,53.7,30.21,WNW,286,0.0,0.0,98,0.00,,,0.00,VWS V14.01,2013-10-03 12:26:00,
2013-10-03 08:31:00,54.2,53.7,30.21,WNW,286,0.0,0.0,98,0.00,,,0.00,VWS V14.01,2013-10-03 12:31:00,
2013-10-03 08:36:00,54.2,53.7,30.21,WNW,286,0.0,0.0,98,0.00,,,0.00,VWS V14.01,2013-10-03 12:36:00,
2013-10-03 08:41:00,54.0,53.5,30.21,WNW,286,0.0,0.0,98,0.00,,,0.00,VWS V14.01,2013-10-03 12:41:00,
2013-10-03 08:46:00,54.0,53.5,30.21,WNW,286,0.0,0.0,98,0.00,,,0.00,VWS V14.01,2013-10-03 12:46:00,
2013-10-03 08:51:00,54.2,53.7,30.21,WNW,286,0.0,0.0,98,0.00,,,0.00,VWS V14.01,2013-10-03 12:51:00,
2013-10-03 08:56:00,54.6,54.0,30.21,NW,309,0.0,0.0,98,0.00,,,0.00,VWS V14.01,2013-10-03 12:56:00,
2013-10-03 09:02:00,54.8,54.2,30.21,NW,309,0.0,0.0,98,0.00,,CLR,0.00,VWS V14.01,2013-10-03 13:02:00,
2013-10-03 09:07:00,55.0,54.4,30.21,NW,309,0.0,0.0,98,0.00,,CLR,0.00,VWS V14.01,2013-10-03 13:07:00,
2013-10-03 09:12:00,55.0,54.4,30.21,NW,309,0.0,0.0,98,0.00,,CLR,0.00,VWS V14.01,2013-10-03 13:12:00,
2013-10-03 09:17:00,55.1,54.6,30.21,NW,309,0.0,0.0,98,0.00,,CLR,0.00,VWS V14.01,2013-10-03 13:17:00,
2013-10-03 09:22:00,55.0,54.4,30.21,NW,309,0.0,0.0,98,0.00,,CLR,0.00,VWS V14.01,2013-10-03 13:22:00,
2013-10-03 09:27:00,55.3,54.8,30.21,NW,309,0.0,0.0,98,0.00,,CLR,0.00,VWS V14.01,2013-10-03 13:27:00,
2013-10-03 09:32:00,55.3,54.8,30.21,NW,309,0.0,0.0,98,0.00,,CLR,0.00,VWS V14.01,2013-10-03 13:32:00,
2013-10-03 09:37:00,55.5,55.0,30.21,NW,323,0.0,0.0,98,0.00,,CLR,0.00,VWS V14.01,2013-10-03 13:37:00,
2013-10-03 09:42:00,55.5,55.0,30.21,NW,319,0.0,0.0,98,0.00,,CLR,0.00,VWS V14.01,2013-10-03 13:42:00,
2013-10-03 09:47:00,55.5,55.0,30.21,NW,319,0.0,0.0,98,0.00,,CLR,0.00,VWS V14.01,2013-10-03 13:47:00,
2013-10-03 09:52:00,56.1,55.5,30.21,West,273,0.0,0.0,98,0.00,,CLR,0.00,VWS V14.01,2013-10-03 13:52:00,
2013-10-03 09:57:00,56.2,55.7,30.21,West,273,0.0,0.0,98,0.00,,CLR,0.00,VWS V14.01,2013-10-03 13:57:00,
2013-10-03 10:02:00,56.6,56.1,30.21,West,273,0.0,0.0,98,0.00,,CLR,0.00,VWS V14.01,2013-10-03 14:02:00,
2013-10-03 10:07:00,56.8,56.2,30.21,South,177,0.0,0.0,98,0.00,,CLR,0.00,VWS V14.01,2013-10-03 14:07:00,
2013-10-03 10:12:00,57.4,56.8,30.21,South,177,0.0,0.0,98,0.00,,CLR,0.00,VWS V14.01,2013-10-03 14:12:00,
2013-10-03 10:17:00,57.4,56.8,30.21,WNW,297,0.0,0.0,98,0.00,,CLR,0.00,VWS V14.01,2013-10-03 14:17:00,
2013-10-03 10:22:00,58.5,57.9,30.21,WNW,302,0.0,0.0,98,0.00,,CLR,0.00,VWS V14.01,2013-10-03 14:22:00,
2013-10-03 10:28:00,58.8,58.3,30.21,SSE,156,0.0,0.0,98,0.00,,CLR,0.00,VWS V14.01,2013-10-03 14:28:00,
2013-10-03 10:33:00,59.0,58.5,30.21,NNW,328,0.0,0.0,98,0.00,,CLR,0.00,VWS V14.01,2013-10-03 14:33:00,
2013-10-03 10:38:00,59.6,59.0,30.21,West,279,0.0,0.0,98,0.00,,CLR,0.00,VWS V14.01,2013-10-03 14:38:00,
2013-10-03 10:43:00,59.8,59.2,30.21,West,279,0.0,0.0,98,0.00,,CLR,0.00,VWS V14.01,2013-10-03 14:43:00,
2013-10-03 10:48:00,60.1,59.6,30.21,SW,231,0.0,0.0,98,0.00,,CLR,0.00,VWS V14.01,2013-10-03 14:48:00,
2013-10-03 10:53:00,60.5,60.0,30.21,South,175,0.0,0.0,98,0.00,,CLR,0.00,VWS V14.01,2013-10-03 14:53:00,
2013-10-03 10:58:00,60.7,60.1,30.21,South,178,0.0,2.7,98,0.00,,CLR,0.00,VWS V14.01,2013-10-03 14:58:00,
2013-10-03 11:03:00,61.2,60.4,30.18,West,266,2.5,3.2,97,0.00,,CLR,0.00,VWS V14.01,2013-10-03 15:03:00,
2013-10-03 11:08:00,61.6,60.2,30.18,WNW,291,3.4,4.3,95,0.00,,CLR,0.00,VWS V14.01,2013-10-03 15:08:00,
2013-10-03 11:13:00,61.8,60.1,30.18,WNW,287,3.0,3.8,94,0.00,,CLR,0.00,VWS V14.01,2013-10-03 15:13:00,
2013-10-03 11:18:00,62.2,60.1,30.21,WSW,251,3.9,4.3,93,0.00,,CLR,0.00,VWS V14.01,2013-10-03 15:18:00,
2013-10-03 11:23:00,62.5,60.2,30.21,SSW,213,2.5,3.8,92,0.00,,CLR,0.00,VWS V14.01,2013-10-03 15:23:00,
2013-10-03 11:28:00,62.9,59.0,30.21,SE,143,0.0,0.0,87,0.00,,CLR,0.00,VWS V14.01,2013-10-03 15:28:00,
2013-10-03 11:33:00,63.5,58.6,30.18,SW,228,0.0,0.0,84,0.00,,CLR,0.00,VWS V14.01,2013-10-03 15:33:00,
2013-10-03 11:38:00,64.2,59.0,30.18,NNW,332,2.5,3.2,83,0.00,,CLR,0.00,VWS V14.01,2013-10-03 15:38:00,
2013-10-03 11:43:00,65.0,59.0,30.18,NW,308,2.5,3.2,81,0.00,,CLR,0.00,VWS V14.01,2013-10-03 15:43:00,
2013-10-03 11:48:00,66.1,59.7,30.18,WNW,301,3.0,3.2,80,0.00,,CLR,0.00,VWS V14.01,2013-10-03 15:48:00,
2013-10-03 11:54:00,66.6,60.3,30.18,WNW,297,4.4,4.8,80,0.00,,CLR,0.00,VWS V14.01,2013-10-03 15:54:00,
2013-10-03 11:59:00,67.2,60.1,30.18,NNW,335,3.4,5.9,78,0.00,,CLR,0.00,VWS V14.01,2013-10-03 15:59:00,
2013-10-03 12:04:00,67.9,60.1,30.18,NNW,332,3.4,4.8,76,0.00,,CLR,0.00,VWS V14.01,2013-10-03 16:04:00,
2013-10-03 12:09:00,67.7,59.2,30.18,West,274,3.0,3.2,74,0.00,,CLR,0.00,VWS V14.01,2013-10-03 16:09:00,
2013-10-03 12:14:00,67.9,59.3,30.18,WNW,292,2.5,2.7,74,0.00,,CLR,0.00,VWS V14.01,2013-10-03 16:14:00,
2013-10-03 12:19:00,68.1,59.5,30.18,WNW,301,0.0,0.0,74,0.00,,CLR,0.00,VWS V14.01,2013-10-03 16:19:00,
2013-10-03 12:24:00,68.8,59.5,30.18,West,276,3.0,3.2,72,0.00,,CLR,0.00,VWS V14.01,2013-10-03 16:24:00,
2013-10-03 12:29:00,68.8,58.7,30.18,NW,310,3.0,3.8,70,0.00,,CLR,0.00,VWS V14.01,2013-10-03 16:29:00,
2013-10-03 12:34:00,69.0,58.9,30.18,WSW,244,0.0,3.2,70,0.00,,CLR,0.00,VWS V14.01,2013-10-03 16:34:00,
2013-10-03 12:39:00,69.4,58.4,30.18,WNW,290,2.5,4.3,68,0.00,,CLR,0.00,VWS V14.01,2013-10-03 16:39:00,
2013-10-03 12:44:00,69.8,57.1,30.18,WNW,284,0.0,0.0,64,0.00,,CLR,0.00,VWS V14.01,2013-10-03 16:44:00,
2013-10-03 12:49:00,70.5,57.8,30.18,NW,321,3.0,3.2,64,0.00,,CLR,0.00,VWS V14.01,2013-10-03 16:49:00,
2013-10-03 12:54:00,71.1,57.9,30.18,WNW,289,0.0,3.8,63,0.00,,CLR,0.00,VWS V14.01,2013-10-03 16:54:00,
2013-10-03 12:59:00,70.5,57.3,30.15,SSE,166,3.0,3.8,63,0.00,,CLR,0.00,VWS V14.01,2013-10-03 16:59:00,
2013-10-03 13:04:00,70.2,57.0,30.15,SSE,148,3.4,3.8,63,0.00,,CLR,0.00,VWS V14.01,2013-10-03 17:04:00,
2013-10-03 13:09:00,70.0,57.7,30.15,SSW,201,3.4,4.3,65,0.00,,CLR,0.00,VWS V14.01,2013-10-03 17:09:00,
2013-10-03 13:15:00,70.7,58.4,30.15,SSW,194,3.0,3.2,65,0.00,,CLR,0.00,VWS V14.01,2013-10-03 17:15:00,
2013-10-03 13:20:00,71.8,58.6,30.15,WNW,298,3.9,4.8,63,0.00,,CLR,0.00,VWS V14.01,2013-10-03 17:20:00,
2013-10-03 13:25:00,72.0,57.4,30.15,South,190,3.0,3.8,60,0.00,,CLR,0.00,VWS V14.01,2013-10-03 17:25:00,
2013-10-03 13:30:00,71.6,57.5,30.15,South,183,2.5,4.3,61,0.00,,CLR,0.00,VWS V14.01,2013-10-03 17:30:00,
2013-10-03 13:35:00,71.6,57.5,30.15,SSW,206,5.4,5.9,61,0.00,,CLR,0.00,VWS V14.01,2013-10-03 17:35:00,
2013-10-03 13:40:00,71.6,57.5,30.15,SSE,167,3.0,3.8,61,0.00,,CLR,0.00,VWS V14.01,2013-10-03 17:40:00,
2013-10-03 13:45:00,71.8,58.1,30.15,South,182,0.0,3.8,62,0.00,,CLR,0.00,VWS V14.01,2013-10-03 17:45:00,
2013-10-03 13:50:00,72.9,57.8,30.15,South,185,5.9,9.1,59,0.00,,CLR,0.00,VWS V14.01,2013-10-03 17:50:00,
2013-10-03 13:55:00,72.9,57.3,30.15,SSE,160,4.4,5.9,58,0.00,,CLR,0.00,VWS V14.01,2013-10-03 17:55:00,
2013-10-03 14:00:00,73.1,56.0,30.15,SSW,201,3.0,5.9,55,0.00,,SCT035,0.00,VWS V14.01,2013-10-03 18:00:00,
2013-10-03 14:05:00,74.2,58.0,30.15,West,270,3.9,7.0,57,0.00,,SCT035,0.00,VWS V14.01,2013-10-03 18:05:00,
2013-10-03 14:10:00,74.6,57.4,30.15,SE,142,6.4,7.0,55,0.00,,SCT035,0.00,VWS V14.01,2013-10-03 18:10:00,
2013-10-03 14:15:00,75.0,57.7,30.15,WNW,283,3.0,4.8,55,0.00,,SCT035,0.00,VWS V14.01,2013-10-03 18:15:00,
2013-10-03 14:20:00,75.5,56.7,30.15,SW,225,0.0,6.4,52,0.00,,SCT035,0.00,VWS V14.01,2013-10-03 18:20:00,
2013-10-03 14:25:00,75.9,57.6,30.15,SSW,213,3.4,4.3,53,0.00,,SCT035,0.00,VWS V14.01,2013-10-03 18:25:00,
2013-10-03 14:30:00,75.7,56.3,30.15,West,261,0.0,0.0,51,0.00,,SCT035,0.00,VWS V14.01,2013-10-03 18:30:00,
2013-10-03 14:36:00,77.2,57.7,30.15,West,276,3.9,5.9,51,0.00,,SCT035,0.00,VWS V14.01,2013-10-03 18:36:00,
2013-10-03 14:41:00,76.6,56.6,30.15,SSW,210,0.0,3.8,50,0.00,,SCT035,0.00,VWS V14.01,2013-10-03 18:41:00,
2013-10-03 14:46:00,76.6,56.1,30.12,SW,229,3.9,4.3,49,0.00,,SCT035,0.00,VWS V14.01,2013-10-03 18:46:00,
2013-10-03 14:51:00,77.8,57.7,30.12,WNW,292,5.9,6.4,50,0.00,,SCT035,0.00,VWS V14.01,2013-10-03 18:51:00,
2013-10-03 14:56:00,77.4,55.0,30.12,SSW,193,2.5,7.0,46,0.00,,SCT035,0.00,VWS V14.01,2013-10-03 18:56:00,
2013-10-03 15:01:00,77.6,55.8,30.12,ESE,123,2.5,3.2,47,0.00,,CLR,0.00,VWS V14.01,2013-10-03 19:01:00,
2013-10-03 15:06:00,78.3,56.4,30.12,West,281,3.0,4.3,47,0.00,,CLR,0.00,VWS V14.01,2013-10-03 19:06:00,
2013-10-03 15:11:00,78.1,55.7,30.12,WSW,247,2.5,4.8,46,0.00,,CLR,0.00,VWS V14.01,2013-10-03 19:11:00,
2013-10-03 15:16:00,77.6,55.2,30.12,South,188,3.9,6.4,46,0.00,,CLR,0.00,VWS V14.01,2013-10-03 19:16:00,
2013-10-03 15:21:00,77.2,54.8,30.12,South,188,5.9,6.4,46,0.00,,CLR,0.00,VWS V14.01,2013-10-03 19:21:00,
2013-10-03 15:26:00,77.0,55.3,30.12,South,186,3.4,5.9,47,0.00,,CLR,0.00,VWS V14.01,2013-10-03 19:26:00,
2013-10-03 15:31:00,76.8,55.7,30.12,SSE,159,3.4,3.8,48,0.00,,CLR,0.00,VWS V14.01,2013-10-03 19:31:00,
2013-10-03 15:36:00,76.5,55.9,30.12,SSE,153,3.0,3.2,49,0.00,,CLR,0.00,VWS V14.01,2013-10-03 19:36:00,
2013-10-03 15:41:00,76.5,55.9,30.12,SW,235,0.0,3.2,49,0.00,,CLR,0.00,VWS V14.01,2013-10-03 19:41:00,
2013-10-03 15:46:00,76.6,56.6,30.12,SSE,161,3.4,4.8,50,0.00,,CLR,0.00,VWS V14.01,2013-10-03 19:46:00,
2013-10-03 15:51:00,76.8,56.2,30.12,SSW,211,3.9,4.8,49,0.00,,CLR,0.00,VWS V14.01,2013-10-03 19:51:00,
2013-10-03 15:56:00,76.8,55.7,30.12,SSW,212,3.0,3.2,48,0.00,,CLR,0.00,VWS V14.01,2013-10-03 19:56:00,
2013-10-03 16:01:00,76.8,55.1,30.12,SSW,204,0.0,0.0,47,0.00,,CLR,0.00,VWS V14.01,2013-10-03 20:01:00,
2013-10-03 16:06:00,76.8,55.7,30.12,South,182,3.9,5.9,48,0.00,,CLR,0.00,VWS V14.01,2013-10-03 20:06:00,
2013-10-03 16:11:00,76.8,55.7,30.12,South,170,3.9,4.3,48,0.00,,CLR,0.00,VWS V14.01,2013-10-03 20:11:00,
2013-10-03 16:16:00,76.5,55.3,30.12,South,187,3.0,3.8,48,0.00,,CLR,0.00,VWS V14.01,2013-10-03 20:16:00,
2013-10-03 16:21:00,76.1,55.6,30.12,South,174,2.5,3.2,49,0.00,,CLR,0.00,VWS V14.01,2013-10-03 20:21:00,
2013-10-03 16:27:00,76.3,56.3,30.12,South,191,0.0,0.0,50,0.00,,CLR,0.00,VWS V14.01,2013-10-03 20:27:00,
2013-10-03 16:32:00,76.1,56.7,30.09,SW,216,3.0,3.8,51,0.00,,CLR,0.00,VWS V14.01,2013-10-03 20:32:00,
2013-10-03 16:37:00,76.3,56.3,30.09,South,180,3.4,3.8,50,0.00,,CLR,0.00,VWS V14.01,2013-10-03 20:37:00,
2013-10-03 16:42:00,76.5,56.5,30.09,South,187,3.0,3.2,50,0.00,,CLR,0.00,VWS V14.01,2013-10-03 20:42:00,
2013-10-03 16:47:00,76.5,57.0,30.12,SSW,206,0.0,4.8,51,0.00,,CLR,0.00,VWS V14.01,2013-10-03 20:47:00,
2013-10-03 16:52:00,76.8,55.7,30.12,South,189,3.0,4.3,48,0.00,,CLR,0.00,VWS V14.01,2013-10-03 20:52:00,
2013-10-03 16:57:00,76.8,55.1,30.12,SSE,155,3.4,3.8,47,0.00,,CLR,0.00,VWS V14.01,2013-10-03 20:57:00,
2013-10-03 17:02:00,76.6,54.9,30.12,West,265,3.9,4.3,47,0.00,,SCT041,0.00,VWS V14.01,2013-10-03 21:02:00,
2013-10-03 17:07:00,76.6,54.9,30.12,WSW,251,3.9,4.3,47,0.00,,SCT041,0.00,VWS V14.01,2013-10-03 21:07:00,
2013-10-03 17:12:00,76.5,55.3,30.12,SW,230,0.0,3.2,48,0.00,,SCT041,0.00,VWS V14.01,2013-10-03 21:12:00,
2013-10-03 17:17:00,76.1,55.0,30.12,SSW,192,3.4,4.8,48,0.00,,SCT041,0.00,VWS V14.01,2013-10-03 21:17:00,
2013-10-03 17:22:00,75.7,55.2,30.12,South,180,3.0,3.8,49,0.00,,SCT041,0.00,VWS V14.01,2013-10-03 21:22:00,
2013-10-03 17:27:00,75.2,55.3,30.12,WSW,243,3.9,4.8,50,0.00,,SCT041,0.00,VWS V14.01,2013-10-03 21:27:00,
2013-10-03 17:32:00,75.0,55.6,30.12,South,189,0.0,3.2,51,0.00,,SCT041,0.00,VWS V14.01,2013-10-03 21:32:00,
2013-10-03 17:38:00,74.8,55.5,30.12,SSE,154,0.0,3.2,51,0.00,,SCT041,0.00,VWS V14.01,2013-10-03 21:38:00,
2013-10-03 17:43:00,74.6,55.8,30.12,South,182,0.0,3.2,52,0.00,,SCT041,0.00,VWS V14.01,2013-10-03 21:43:00,
2013-10-03 17:48:00,74.6,55.8,30.12,South,184,2.5,4.3,52,0.00,,SCT041,0.00,VWS V14.01,2013-10-03 21:48:00,
2013-10-03 17:53:00,74.8,57.0,30.12,South,189,0.0,2.7,54,0.00,,SCT041,0.00,VWS V14.01,2013-10-03 21:53:00,
2013-10-03 17:58:00,74.8,57.0,30.12,NW,304,3.0,3.8,54,0.00,,SCT041,0.00,VWS V14.01,2013-10-03 21:58:00,
2013-10-03 18:03:00,75.0,56.2,30.12,West,263,3.0,3.8,52,0.00,,,0.00,VWS V14.01,2013-10-03 22:03:00,
2013-10-03 18:08:00,75.0,55.6,30.12,West,274,0.0,3.8,51,0.00,,,0.00,VWS V14.01,2013-10-03 22:08:00,
2013-10-03 18:13:00,74.8,55.5,30.12,WSW,244,3.4,3.8,51,0.00,,,0.00,VWS V14.01,2013-10-03 22:13:00,
2013-10-03 18:18:00,74.8,55.5,30.12,WSW,238,2.5,3.2,51,0.00,,,0.00,VWS V14.01,2013-10-03 22:18:00,
2013-10-03 18:23:00,74.6,55.8,30.12,WSW,254,2.5,2.7,52,0.00,,,0.00,VWS V14.01,2013-10-03 22:23:00,
2013-10-03 18:28:00,74.2,56.0,30.12,WSW,252,0.0,0.0,53,0.00,,,0.00,VWS V14.01,2013-10-03 22:28:00,
2013-10-03 18:33:00,74.1,55.8,30.12,SSW,211,0.0,0.0,53,0.00,,,0.00,VWS V14.01,2013-10-03 22:33:00,
2013-10-03 18:38:00,73.5,56.8,30.12,WSW,258,0.0,0.0,56,0.00,,,0.00,VWS V14.01,2013-10-03 22:38:00,
2013-10-03 18:44:00,72.9,57.3,30.12,WSW,258,0.0,0.0,58,0.00,,,0.00,VWS V14.01,2013-10-03 22:44:00,
2013-10-03 18:49:00,72.8,57.6,30.12,WSW,258,0.0,0.0,59,0.00,,,0.00,VWS V14.01,2013-10-03 22:49:00,
2013-10-03 21:44:00,64.6,57.2,30.15,East,83,0.0,0.0,77,0.00,,,0.00,VWS V14.01,2013-10-04 01:44:00,
2013-10-03 21:49:00,64.6,57.2,30.15,East,83,0.0,0.0,77,0.00,,CLR,0.00,VWS V14.01,2013-10-04 01:49:00,
2013-10-03 21:54:00,64.2,57.2,30.15,East,83,0.0,0.0,78,0.00,,CLR,0.00,VWS V14.01,2013-10-04 01:54:00,
2013-10-03 21:59:00,63.7,57.4,30.15,East,83,0.0,0.0,80,0.00,,CLR,0.00,VWS V14.01,2013-10-04 01:59:00,
2013-10-03 22:05:00,63.7,57.4,30.15,East,83,0.0,0.0,80,0.00,,CLR,0.00,VWS V14.01,2013-10-04 02:05:00,
2013-10-03 22:10:00,63.8,57.6,30.15,East,83,0.0,0.0,80,0.00,,CLR,0.00,VWS V14.01,2013-10-04 02:10:00,
2013-10-03 22:15:00,63.3,57.4,30.15,East,83,0.0,0.0,81,0.00,,CLR,0.00,VWS V14.01,2013-10-04 02:15:00,
2013-10-03 22:20:00,63.5,57.5,30.15,East,83,0.0,0.0,81,0.00,,CLR,0.00,VWS V14.01,2013-10-04 02:20:00,
2013-10-03 22:25:00,63.3,57.7,30.15,East,83,0.0,0.0,82,0.00,,CLR,0.00,VWS V14.01,2013-10-04 02:25:00,
2013-10-03 22:30:00,62.9,57.3,30.15,East,83,0.0,0.0,82,0.00,,CLR,0.00,VWS V14.01,2013-10-04 02:30:00,
2013-10-03 22:35:00,62.7,57.2,30.15,East,83,0.0,0.0,82,0.00,,CLR,0.00,VWS V14.01,2013-10-04 02:35:00,
2013-10-03 22:40:00,62.7,57.2,30.15,East,83,0.0,0.0,82,0.00,,CLR,0.00,VWS V14.01,2013-10-04 02:40:00,
2013-10-03 22:45:00,62.7,56.8,30.15,East,83,0.0,0.0,81,0.00,,CLR,0.00,VWS V14.01,2013-10-04 02:45:00,
2013-10-03 22:50:00,62.7,56.8,30.15,East,83,0.0,0.0,81,0.00,,CLR,0.00,VWS V14.01,2013-10-04 02:50:00,
2013-10-03 22:55:00,62.2,56.3,30.15,East,83,0.0,0.0,81,0.00,,CLR,0.00,VWS V14.01,2013-10-04 02:55:00,
2013-10-03 23:00:00,62.0,56.1,30.15,East,83,0.0,0.0,81,0.00,,CLR,0.00,VWS V14.01,2013-10-04 03:00:00,
2013-10-03 23:05:00,62.0,56.1,30.15,East,83,0.0,0.0,81,0.00,,CLR,0.00,VWS V14.01,2013-10-04 03:05:00,
2013-10-03 23:10:00,61.8,56.3,30.15,East,83,0.0,0.0,82,0.00,,CLR,0.00,VWS V14.01,2013-10-04 03:10:00,
2013-10-03 23:15:00,61.8,56.3,30.15,East,83,0.0,0.0,82,0.00,,CLR,0.00,VWS V14.01,2013-10-04 03:15:00,
2013-10-03 23:20:00,61.8,56.3,30.15,East,83,0.0,0.0,82,0.00,,CLR,0.00,VWS V14.01,2013-10-04 03:20:00,
2013-10-03 23:25:00,61.2,56.0,30.15,East,83,0.0,0.0,83,0.00,,CLR,0.00,VWS V14.01,2013-10-04 03:25:00,
2013-10-03 23:30:00,61.4,56.2,30.15,East,83,0.0,0.0,83,0.00,,CLR,0.00,VWS V14.01,2013-10-04 03:30:00,
2013-10-03 23:35:00,61.4,56.6,30.15,East,83,0.0,0.0,84,0.00,,CLR,0.00,VWS V14.01,2013-10-04 03:35:00,
2013-10-03 23:40:00,61.4,56.6,30.15,East,83,0.0,0.0,84,0.00,,CLR,0.00,VWS V14.01,2013-10-04 03:40:00,
2013-10-03 23:45:00,61.2,56.4,30.15,East,83,0.0,0.0,84,0.00,,CLR,0.00,VWS V14.01,2013-10-04 03:45:00,
2013-10-03 23:51:00,61.2,56.7,30.15,East,83,0.0,0.0,85,0.00,,CLR,0.00,VWS V14.01,2013-10-04 03:51:00,
2013-10-03 23:56:00,60.5,55.7,30.15,East,83,0.0,0.0,84,0.00,,CLR,0.00,VWS V14.01,2013-10-04 03:56:00,